Time;durP1;ratioP1;P1;durP2;ratioP2;P2;SDS_P1;SDS_P2;PMS_P1;PMS_P2;Temp;Humidity;BMP_temperature;BMP_pressure;BME280_temperature;BME280_humidity;BME280_pressure;Samples;Min_cycle;Max_cycle;Signal;HPM_P1;HPM_P2
2023/09/12 00:02:07;;;;;;;0.50;0.50;;;;;;;;;;4988594;28;20045;-82
2023/09/12 00:04:33;;;;;;;0.38;0.32;;;;;;;;;;4977288;28;20045;-82
2023/09/12 00:06:59;;;;;;;1.00;0.40;;;;;;;;;;4972214;28;20044;-82
2023/09/12 00:09:25;;;;;;;0.63;0.52;;;;;;;;;;4976219;28;20049;-81
2023/09/12 00:11:51;;;;;;;0.38;0.30;;;;;;;;;;4985910;28;20037;-81
2023/09/12 00:14:17;;;;;;;0.43;0.40;;;;;;;;;;4975994;28;20790;-81
2023/09/12 00:16:43;;;;;;;0.50;0.30;;;;;;;;;;4989933;28;20053;-81
2023/09/12 00:19:10;;;;;;;0.63;0.43;;;;;;;;;;4989783;28;20095;-82
2023/09/12 00:21:36;;;;;;;0.77;0.40;;;;;;;;;;4978218;28;20042;-82
2023/09/12 00:24:02;;;;;;;0.20;0.20;;;;;;;;;;4981238;28;20469;-82
2023/09/12 00:26:30;;;;;;;0.20;0.20;;;;;;;;;;4986890;28;20467;-80
2023/09/12 00:28:56;;;;;;;0.40;0.30;;;;;;;;;;4982754;28;20065;-81
2023/09/12 00:31:22;;;;;;;0.35;0.30;;;;;;;;;;4976405;28;20046;-82
2023/09/12 00:33:48;;;;;;;0.63;0.52;;;;;;;;;;4973439;28;20126;-82
2023/09/12 00:36:14;;;;;;;0.50;0.50;;;;;;;;;;4971408;28;20391;-82
2023/09/12 00:38:40;;;;;;;0.95;0.57;;;;;;;;;;4984502;28;20073;-82
2023/09/12 00:41:06;;;;;;;0.40;0.38;;;;;;;;;;4976641;28;20066;-83
2023/09/12 00:43:32;;;;;;;0.60;0.35;;;;;;;;;;4973822;28;20124;-83
2023/09/12 00:45:58;;;;;;;0.40;0.40;;;;;;;;;;4982973;28;20523;-83
2023/09/12 00:48:25;;;;;;;0.50;0.45;;;;;;;;;;4979970;28;20049;-83
2023/09/12 00:50:52;;;;;;;0.30;0.30;;;;;;;;;;4975381;28;20409;-82
2023/09/12 00:53:19;;;;;;;0.85;0.82;;;;;;;;;;4983935;28;20053;-82
2023/09/12 00:55:56;;;;;;;0.57;0.40;;;;;;;;;;4977292;28;20049;-81
2023/09/12 00:58:22;;;;;;;0.38;0.20;;;;;;;;;;4989526;28;20042;-82
2023/09/12 01:00:48;;;;;;;0.68;0.35;;;;;;;;;;4988680;28;20406;-82
2023/09/12 01:03:14;;;;;;;0.20;0.15;;;;;;;;;;4976163;28;20061;-82
2023/09/12 01:05:42;;;;;;;0.50;0.30;;;;;;;;;;4993636;28;20053;-81
2023/09/12 01:08:08;;;;;;;0.85;0.52;;;;;;;;;;4982775;28;20041;-82
2023/09/12 01:10:34;;;;;;;0.20;0.20;;;;;;;;;;4968687;28;20489;-82
2023/09/12 01:13:00;;;;;;;0.90;0.60;;;;;;;;;;4982364;28;20120;-82
2023/09/12 01:15:26;;;;;;;0.20;0.10;;;;;;;;;;4964870;28;20145;-81
2023/09/12 01:17:52;;;;;;;0.52;0.40;;;;;;;;;;4967401;28;20565;-82
2023/09/12 01:20:23;;;;;;;0.73;0.57;;;;;;;;;;4979793;28;20530;-83
2023/09/12 01:23:08;;;;;;;0.82;0.57;;;;;;;;;;4969722;28;20105;-83
2023/09/12 01:25:54;;;;;;;0.55;0.55;;;;;;;;;;4988758;28;20038;-82
2023/09/12 01:28:23;;;;;;;1.05;0.47;;;;;;;;;;4979972;28;20126;-83
2023/09/12 01:30:49;;;;;;;0.20;0.20;;;;;;;;;;4976843;28;20125;-83
2023/09/12 01:33:15;;;;;;;0.22;0.15;;;;;;;;;;4955947;28;20045;-83
2023/09/12 01:35:41;;;;;;;0.30;0.30;;;;;;;;;;4977474;28;20117;-83
2023/09/12 01:38:07;;;;;;;0.55;0.47;;;;;;;;;;4980579;28;20034;-83
2023/09/12 01:40:43;;;;;;;0.85;0.82;;;;;;;;;;4981239;28;20665;-83
2023/09/12 01:43:09;;;;;;;1.10;0.55;;;;;;;;;;4983038;28;20038;-83
2023/09/12 01:45:36;;;;;;;0.20;0.20;;;;;;;;;;4963057;28;20052;-84
2023/09/12 01:48:03;;;;;;;0.30;0.30;;;;;;;;;;4984699;28;20099;-82
2023/09/12 01:50:30;;;;;;;0.63;0.52;;;;;;;;;;4982241;28;20476;-84
2023/09/12 01:52:56;;;;;;;0.95;0.70;;;;;;;;;;4985288;28;20045;-83
2023/09/12 01:55:23;;;;;;;0.60;0.52;;;;;;;;;;4969773;28;20046;-83
2023/09/12 01:57:49;;;;;;;0.25;0.25;;;;;;;;;;4981845;28;20607;-83
2023/09/12 02:00:15;;;;;;;0.70;0.68;;;;;;;;;;4983297;28;20044;-83
2023/09/12 02:02:41;;;;;;;1.00;0.70;;;;;;;;;;4966152;28;20038;-84
2023/09/12 02:05:14;;;;;;;0.35;0.22;;;;;;;;;;4971951;28;20045;-84
2023/09/12 02:07:40;;;;;;;;;;;;;;;;;;4983541;28;20034;-83
2023/09/12 02:10:06;;;;;;;0.70;0.70;;;;;;;;;;4985473;28;19928;-84
2023/09/12 02:12:32;;;;;;;0.95;0.57;;;;;;;;;;4986358;28;20026;-83
2023/09/12 02:14:58;;;;;;;0.57;0.52;;;;;;;;;;4986899;28;20065;-83
2023/09/12 02:17:24;;;;;;;0.95;0.70;;;;;;;;;;4981595;28;20053;-84
2023/09/12 02:19:50;;;;;;;0.25;0.25;;;;;;;;;;4969391;28;20045;-84
2023/09/12 02:22:17;;;;;;;0.90;0.75;;;;;;;;;;4977584;28;20034;-83
2023/09/12 02:24:43;;;;;;;1.33;0.80;;;;;;;;;;4973570;28;20044;-83
2023/09/12 02:27:09;;;;;;;0.75;0.75;;;;;;;;;;4970849;28;20439;-83
2023/09/12 02:29:35;;;;;;;0.73;0.40;;;;;;;;;;4971906;28;20072;-83
2023/09/12 02:32:01;;;;;;;0.47;0.35;;;;;;;;;;4969927;28;20045;-83
2023/09/12 02:34:27;;;;;;;0.82;0.30;;;;;;;;;;4978600;28;20042;-82
2023/09/12 02:36:53;;;;;;;0.90;0.60;;;;;;;;;;4962596;28;20457;-83
2023/09/12 02:39:20;;;;;;;0.20;0.13;;;;;;;;;;4983838;28;20474;-83
2023/09/12 02:41:46;;;;;;;0.25;0.25;;;;;;;;;;4981337;28;20084;-83
2023/09/12 02:44:12;;;;;;;0.40;0.38;;;;;;;;;;4977647;28;20137;-82
2023/09/12 02:46:38;;;;;;;0.65;0.52;;;;;;;;;;4964914;28;20042;-82
2023/09/12 02:49:04;;;;;;;1.27;0.55;;;;;;;;;;4987292;28;20037;-82
2023/09/12 02:51:30;;;;;;;0.52;0.35;;;;;;;;;;4979475;28;20057;-83
2023/09/12 02:53:56;;;;;;;1.95;0.55;;;;;;;;;;4979997;28;20129;-83
2023/09/12 02:56:22;;;;;;;0.20;0.20;;;;;;;;;;4976859;28;20142;-83
2023/09/12 02:58:49;;;;;;;0.35;0.32;;;;;;;;;;4959457;28;20031;-83
2023/09/12 03:01:16;;;;;;;0.60;0.60;;;;;;;;;;4981211;28;20085;-83
2023/09/12 03:03:42;;;;;;;0.22;0.15;;;;;;;;;;4984404;28;20034;-83
2023/09/12 03:06:08;;;;;;;0.22;0.22;;;;;;;;;;4964804;28;20129;-83
2023/09/12 03:08:34;;;;;;;0.20;0.20;;;;;;;;;;4964390;28;20125;-83
2023/09/12 03:11:02;;;;;;;0.30;0.20;;;;;;;;;;4983208;28;20132;-83
2023/09/12 03:13:28;;;;;;;0.47;0.30;;;;;;;;;;4969237;28;20113;-83
2023/09/12 03:15:54;;;;;;;1.02;0.50;;;;;;;;;;4967049;28;20417;-82
2023/09/12 03:18:21;;;;;;;0.30;0.10;;;;;;;;;;4983733;28;20107;-84
2023/09/12 03:20:47;;;;;;;0.60;0.43;;;;;;;;;;4985938;28;20041;-83
2023/09/12 03:23:13;;;;;;;0.30;0.17;;;;;;;;;;4981132;28;20425;-83
2023/09/12 03:25:39;;;;;;;0.77;0.60;;;;;;;;;;4985815;28;20045;-83
2023/09/12 03:28:06;;;;;;;0.43;0.35;;;;;;;;;;4977854;28;20046;-83
2023/09/12 03:30:36;;;;;;;0.20;0.13;;;;;;;;;;4966748;28;20049;-82
2023/09/12 03:33:02;;;;;;;0.20;0.20;;;;;;;;;;4969511;28;20424;-84
2023/09/12 03:35:29;;;;;;;0.45;0.30;;;;;;;;;;4982126;28;20379;-84
2023/09/12 03:37:55;;;;;;;0.50;0.40;;;;;;;;;;4970963;28;20057;-84
2023/09/12 03:40:21;;;;;;;0.73;0.28;;;;;;;;;;4979235;28;20038;-83
2023/09/12 03:42:47;;;;;;;1.20;0.57;;;;;;;;;;4979677;28;20100;-82
2023/09/12 03:45:13;;;;;;;0.38;0.32;;;;;;;;;;4976722;28;20476;-82
2023/09/12 03:47:39;;;;;;;0.32;0.32;;;;;;;;;;4985879;28;20469;-83
2023/09/12 03:50:06;;;;;;;1.10;0.70;;;;;;;;;;4974947;28;20068;-82
2023/09/12 03:52:32;;;;;;;0.77;0.47;;;;;;;;;;4985352;28;20041;-82
2023/09/12 03:55:00;;;;;;;0.55;0.45;;;;;;;;;;4967170;28;20161;-83
2023/09/12 03:57:26;;;;;;;0.90;0.80;;;;;;;;;;4970887;28;20058;-83
2023/09/12 03:59:52;;;;;;;0.47;0.47;;;;;;;;;;4983534;28;20069;-83
2023/09/12 04:02:19;;;;;;;0.43;0.38;;;;;;;;;;4985976;28;20160;-83
2023/09/12 04:04:45;;;;;;;0.47;0.43;;;;;;;;;;4972789;28;20053;-83
2023/09/12 04:07:11;;;;;;;0.98;0.60;;;;;;;;;;4999627;28;20050;-82
2023/09/12 04:09:37;;;;;;;0.68;0.13;;;;;;;;;;4979243;28;20589;-83
2023/09/12 04:12:03;;;;;;;0.28;0.15;;;;;;;;;;4972868;28;20112;-83
2023/09/12 04:14:29;;;;;;;1.08;0.75;;;;;;;;;;4981895;28;20046;-82
2023/09/12 04:16:55;;;;;;;0.30;0.20;;;;;;;;;;4970347;28;20057;-82
2023/09/12 04:19:21;;;;;;;0.50;0.30;;;;;;;;;;4969201;28;20030;-82
2023/09/12 04:21:47;;;;;;;0.47;0.47;;;;;;;;;;4971580;28;20131;-80
2023/09/12 04:24:13;;;;;;;0.32;0.30;;;;;;;;;;4977283;28;20553;-81
2023/09/12 04:26:39;;;;;;;0.85;0.57;;;;;;;;;;4976346;28;20068;-83
2023/09/12 04:29:05;;;;;;;0.20;0.20;;;;;;;;;;4968881;28;20789;-82
2023/09/12 04:31:31;;;;;;;0.30;0.20;;;;;;;;;;4980077;28;20042;-83
2023/09/12 04:33:57;;;;;;;0.20;0.13;;;;;;;;;;4961565;28;20099;-83
2023/09/12 04:36:23;;;;;;;0.68;0.68;;;;;;;;;;4977576;28;20426;-83
2023/09/12 04:38:49;;;;;;;0.90;0.82;;;;;;;;;;4961681;28;20181;-83
2023/09/12 04:41:16;;;;;;;0.20;0.20;;;;;;;;;;4963585;28;20046;-83
2023/09/12 04:43:44;;;;;;;0.20;0.20;;;;;;;;;;4963347;28;20033;-83
2023/09/12 04:46:10;;;;;;;0.75;0.45;;;;;;;;;;4968275;28;20046;-83
2023/09/12 04:48:36;;;;;;;0.40;0.25;;;;;;;;;;4980255;28;20041;-81
2023/09/12 04:51:02;;;;;;;0.47;0.30;;;;;;;;;;4966088;28;20045;-82
2023/09/12 04:53:34;;;;;;;0.80;0.38;;;;;;;;;;4967636;28;20042;-80
2023/09/12 04:56:03;;;;;;;0.30;0.25;;;;;;;;;;4985335;28;20046;-82
2023/09/12 04:58:30;;;;;;;0.20;0.10;;;;;;;;;;4972078;28;20045;-81
2023/09/12 05:00:56;;;;;;;0.68;0.30;;;;;;;;;;4964421;28;20046;-81
2023/09/12 05:03:22;;;;;;;0.25;0.25;;;;;;;;;;4974973;28;20037;-80
2023/09/12 05:05:52;;;;;;;0.70;0.50;;;;;;;;;;4962213;28;20077;-81
2023/09/12 05:08:18;;;;;;;0.28;0.28;;;;;;;;;;4981970;28;20093;-82
2023/09/12 05:10:44;;;;;;;0.40;0.32;;;;;;;;;;4975078;28;20425;-83
2023/09/12 05:13:10;;;;;;;0.47;0.30;;;;;;;;;;4990379;28;20068;-82
2023/09/12 05:15:39;;;;;;;0.30;0.30;;;;;;;;;;4992933;28;20046;-82
2023/09/12 05:18:05;;;;;;;0.20;0.15;;;;;;;;;;4981326;28;20046;-81
2023/09/12 05:20:32;;;;;;;0.40;0.30;;;;;;;;;;4977284;28;20077;-82
2023/09/12 05:22:58;;;;;;;0.45;0.45;;;;;;;;;;4970195;28;20135;-82
2023/09/12 05:25:24;;;;;;;0.20;0.20;;;;;;;;;;4982087;28;20092;-81
2023/09/12 05:27:50;;;;;;;0.73;0.40;;;;;;;;;;4970063;28;20068;-81
2023/09/12 05:30:16;;;;;;;0.57;0.10;;;;;;;;;;4975529;28;20041;-80
2023/09/12 05:32:42;;;;;;;0.40;0.30;;;;;;;;;;4963784;28;20052;-81
2023/09/12 05:35:08;;;;;;;0.63;0.43;;;;;;;;;;4985217;28;20084;-81
2023/09/12 05:37:34;;;;;;;0.20;0.10;;;;;;;;;;4974043;28;20030;-81
2023/09/12 05:40:00;;;;;;;0.40;0.40;;;;;;;;;;4990370;28;20089;-82
2023/09/12 05:42:26;;;;;;;0.20;0.20;;;;;;;;;;4989439;28;20113;-82
2023/09/12 05:44:53;;;;;;;0.30;0.22;;;;;;;;;;4985806;28;20057;-81
2023/09/12 05:47:19;;;;;;;0.25;0.25;;;;;;;;;;4989512;28;20530;-81
2023/09/12 05:49:46;;;;;;;0.20;0.10;;;;;;;;;;4964960;28;20038;-81
2023/09/12 05:52:12;;;;;;;0.30;0.20;;;;;;;;;;4973301;28;20045;-82
2023/09/12 05:54:39;;;;;;;0.65;0.40;;;;;;;;;;4979327;28;20042;-82
2023/09/12 05:57:05;;;;;;;0.20;0.10;;;;;;;;;;4979697;28;20077;-82
2023/09/12 05:59:31;;;;;;;0.20;0.10;;;;;;;;;;4969631;28;20034;-82
2023/09/12 06:01:57;;;;;;;0.95;0.65;;;;;;;;;;4992576;28;20065;-82
2023/09/12 06:04:23;;;;;;;0.25;0.17;;;;;;;;;;4978077;28;20651;-82
2023/09/12 06:06:49;;;;;;;0.40;0.40;;;;;;;;;;4990357;28;20046;-83
2023/09/12 06:09:15;;;;;;;0.30;0.28;;;;;;;;;;4982678;28;20034;-82
2023/09/12 06:11:41;;;;;;;1.05;0.40;;;;;;;;;;4986663;28;20042;-81
2023/09/12 06:14:07;;;;;;;0.45;0.45;;;;;;;;;;4988381;28;20102;-81
2023/09/12 06:16:33;;;;;;;0.30;0.30;;;;;;;;;;4987106;28;20038;-80
2023/09/12 06:18:59;;;;;;;0.90;0.35;;;;;;;;;;4993313;28;20033;-81
2023/09/12 06:21:25;;;;;;;0.65;0.45;;;;;;;;;;4991646;28;20852;-79
2023/09/12 06:24:09;;;;;;;0.75;0.65;;;;;;;;;;4994650;28;20046;-83
2023/09/12 06:26:35;;;;;;;0.32;0.30;;;;;;;;;;4994735;28;20381;-81
2023/09/12 06:29:02;;;;;;;0.60;0.60;;;;;;;;;;4999562;28;20045;-80
2023/09/12 06:31:28;;;;;;;0.22;0.20;;;;;;;;;;4984968;28;20049;-81
2023/09/12 06:33:54;;;;;;;0.77;0.77;;;;;;;;;;4998984;28;20038;-80
2023/09/12 06:36:20;;;;;;;0.60;0.52;;;;;;;;;;4997974;28;20040;-83
2023/09/12 06:38:46;;;;;;;0.45;0.35;;;;;;;;;;4992422;28;20097;-80
2023/09/12 06:41:12;;;;;;;0.40;0.32;;;;;;;;;;4997530;28;20072;-80
2023/09/12 06:43:38;;;;;;;0.65;0.30;;;;;;;;;;4993612;28;20033;-79
2023/09/12 06:46:04;;;;;;;0.50;0.50;;;;;;;;;;4993980;28;20060;-80
2023/09/12 06:48:30;;;;;;;0.40;0.40;;;;;;;;;;4990695;28;20057;-82
2023/09/12 06:50:56;;;;;;;0.40;0.40;;;;;;;;;;4986394;28;20244;-76
2023/09/12 06:53:22;;;;;;;0.30;0.30;;;;;;;;;;4980020;28;20135;-77
2023/09/12 06:55:48;;;;;;;0.30;0.30;;;;;;;;;;4984140;28;20068;-77
2023/09/12 06:58:14;;;;;;;0.65;0.55;;;;;;;;;;4981836;28;20033;-77
2023/09/12 07:00:40;;;;;;;0.88;0.82;;;;;;;;;;4977569;28;20073;-77
2023/09/12 07:03:06;;;;;;;1.13;0.70;;;;;;;;;;4990391;28;20041;-81
2023/09/12 07:05:32;;;;;;;0.30;0.30;;;;;;;;;;4996151;28;20058;-80
2023/09/12 07:07:58;;;;;;;0.20;0.20;;;;;;;;;;4990098;28;20042;-80
2023/09/12 07:10:25;;;;;;;0.50;0.50;;;;;;;;;;4993948;28;20045;-81
2023/09/12 07:12:51;;;;;;;0.57;0.57;;;;;;;;;;4984527;28;20104;-79
2023/09/12 07:15:17;;;;;;;1.83;0.85;;;;;;;;;;4992888;28;20467;-80
2023/09/12 07:17:43;;;;;;;0.20;0.10;;;;;;;;;;4990473;28;20033;-80
2023/09/12 07:20:12;;;;;;;0.20;0.10;;;;;;;;;;4988497;28;20030;-79
2023/09/12 07:22:40;;;;;;;0.45;0.40;;;;;;;;;;4989597;28;20040;-80
2023/09/12 07:25:06;;;;;;;1.05;0.30;;;;;;;;;;4978005;28;20041;-82
2023/09/12 07:27:33;;;;;;;4.35;0.85;;;;;;;;;;4977325;28;20121;-81
2023/09/12 07:29:59;;;;;;;0.73;0.68;;;;;;;;;;4975881;28;20045;-82
2023/09/12 07:32:25;;;;;;;0.40;0.32;;;;;;;;;;4986711;28;20037;-80
2023/09/12 07:34:51;;;;;;;0.20;0.20;;;;;;;;;;4975323;28;20038;-82
2023/09/12 07:37:17;;;;;;;0.85;0.85;;;;;;;;;;4990202;28;20535;-81
2023/09/12 07:39:43;;;;;;;0.60;0.52;;;;;;;;;;4985526;28;20038;-82
2023/09/12 07:42:09;;;;;;;1.33;0.47;;;;;;;;;;4983797;28;20100;-81
2023/09/12 07:44:35;;;;;;;0.52;0.52;;;;;;;;;;4986593;28;20513;-82
2023/09/12 07:47:01;;;;;;;0.25;0.15;;;;;;;;;;4976677;28;20046;-81
2023/09/12 07:49:27;;;;;;;0.20;0.20;;;;;;;;;;4975570;28;20038;-84
2023/09/12 07:51:54;;;;;;;0.40;0.40;;;;;;;;;;4975649;28;20161;-77
2023/09/12 07:54:20;;;;;;;0.60;0.60;;;;;;;;;;4985691;28;20576;-80
2023/09/12 07:56:46;;;;;;;0.57;0.57;;;;;;;;;;5005465;28;20040;-76
2023/09/12 07:59:14;;;;;;;1.20;0.60;;;;;;;;;;4981385;28;20133;-82
2023/09/12 08:01:40;;;;;;;0.30;0.10;;;;;;;;;;4986826;28;20045;-82
2023/09/12 08:04:06;;;;;;;0.90;0.77;;;;;;;;;;4983605;28;20050;-78
2023/09/12 08:06:33;;;;;;;0.88;0.60;;;;;;;;;;4974983;28;20046;-78
2023/09/12 08:08:59;;;;;;;0.77;0.77;;;;;;;;;;4976635;28;20046;-81
2023/09/12 08:11:26;;;;;;;1.52;0.52;;;;;;;;;;4982326;28;20045;-85
2023/09/12 08:13:52;;;;;;;0.40;0.30;;;;;;;;;;4965851;28;20122;-86
2023/09/12 08:16:18;;;;;;;0.20;0.20;;;;;;;;;;4971799;28;20038;-84
2023/09/12 08:18:44;;;;;;;0.38;0.38;;;;;;;;;;4988565;28;20050;-79
2023/09/12 08:21:11;;;;;;;0.30;0.30;;;;;;;;;;4983903;28;20112;-81
2023/09/12 08:23:37;;;;;;;0.20;0.10;;;;;;;;;;4987014;28;20095;-80
2023/09/12 08:26:03;;;;;;;0.30;0.30;;;;;;;;;;4991984;28;20046;-83
2023/09/12 08:28:29;;;;;;;0.40;0.40;;;;;;;;;;4989159;28;20099;-82
2023/09/12 08:30:55;;;;;;;0.30;0.30;;;;;;;;;;4977242;28;20049;-79
2023/09/12 08:33:21;;;;;;;0.52;0.35;;;;;;;;;;5009681;28;20065;-81
2023/09/12 08:35:48;;;;;;;0.40;0.40;;;;;;;;;;4989858;28;20152;-79
2023/09/12 08:38:14;;;;;;;0.63;0.63;;;;;;;;;;4972346;28;20034;-78
2023/09/12 08:40:40;;;;;;;0.65;0.60;;;;;;;;;;4986356;28;20038;-80
2023/09/12 08:43:06;;;;;;;1.42;1.23;;;;;;;;;;4992989;28;20054;-80
2023/09/12 08:45:32;;;;;;;0.20;0.00;;;;;;;;;;4984168;28;20108;-82
2023/09/12 08:48:02;;;;;;;0.77;0.55;;;;;;;;;;4988473;28;20051;-82
2023/09/12 08:50:32;;;;;;;0.20;0.13;;;;;;;;;;4986452;28;20050;-82
2023/09/12 08:52:59;;;;;;;0.30;0.20;;;;;;;;;;4999256;28;20298;-82
2023/09/12 08:55:25;;;;;;;0.40;0.40;;;;;;;;;;4982429;28;20116;-81
2023/09/12 08:57:51;;;;;;;0.28;0.20;;;;;;;;;;4986000;28;20041;-79
2023/09/12 09:00:17;;;;;;;0.20;0.10;;;;;;;;;;4980652;28;20117;-79
2023/09/12 09:02:44;;;;;;;0.20;0.15;;;;;;;;;;4984667;28;20034;-80
2023/09/12 09:05:10;;;;;;;0.20;0.10;;;;;;;;;;4970662;28;20501;-80
2023/09/12 09:07:37;;;;;;;1.08;0.38;;;;;;;;;;4971656;28;20057;-80
2023/09/12 09:10:07;;;;;;;0.50;0.43;;;;;;;;;;4987894;28;20042;-81
2023/09/12 09:12:33;;;;;;;2.15;0.50;;;;;;;;;;4972657;28;20141;-79
2023/09/12 09:15:00;;;;;;;0.20;0.10;;;;;;;;;;4987123;28;20048;-80
2023/09/12 09:17:26;;;;;;;0.20;0.10;;;;;;;;;;4988067;28;20060;-80
2023/09/12 09:19:54;;;;;;;0.30;0.30;;;;;;;;;;4974965;28;20045;-80
2023/09/12 09:22:20;;;;;;;0.30;0.30;;;;;;;;;;4979381;28;20092;-80
2023/09/12 09:24:46;;;;;;;0.20;0.15;;;;;;;;;;4984329;28;20119;-79
2023/09/12 09:27:12;;;;;;;0.95;0.28;;;;;;;;;;4974122;28;20049;-79
2023/09/12 09:29:48;;;;;;;1.17;1.02;;;;;;;;;;4984114;28;20099;-82
2023/09/12 09:32:18;;;;;;;0.75;0.22;;;;;;;;;;4975083;28;20038;-80
2023/09/12 09:34:45;;;;;;;0.22;0.22;;;;;;;;;;4985662;28;20121;-80
2023/09/12 09:37:11;;;;;;;0.40;0.35;;;;;;;;;;4972834;28;20361;-80
2023/09/12 09:39:37;;;;;;;1.27;0.50;;;;;;;;;;4982538;28;20102;-80
2023/09/12 09:42:03;;;;;;;0.30;0.30;;;;;;;;;;4973399;28;20046;-80
2023/09/12 09:44:30;;;;;;;0.20;0.20;;;;;;;;;;4972254;28;20110;-80
2023/09/12 09:47:02;;;;;;;0.40;0.28;;;;;;;;;;4988628;28;20045;-81
2023/09/12 09:49:28;;;;;;;1.40;1.10;;;;;;;;;;4965067;28;20494;-81
2023/09/12 09:51:56;;;;;;;0.60;0.20;;;;;;;;;;4992243;28;20105;-80
2023/09/12 09:54:24;;;;;;;0.20;0.20;;;;;;;;;;4983633;28;20050;-80
2023/09/12 09:56:53;;;;;;;0.43;0.30;;;;;;;;;;4976593;28;20405;-80
2023/09/12 09:59:21;;;;;;;0.57;0.57;;;;;;;;;;4975503;28;20030;-79
2023/09/12 10:01:48;;;;;;;0.95;0.30;;;;;;;;;;4976421;28;20038;-81
2023/09/12 10:04:15;;;;;;;1.10;0.47;;;;;;;;;;4982405;28;20046;-81
2023/09/12 10:06:43;;;;;;;0.45;0.17;;;;;;;;;;4986229;28;20133;-80
2023/09/12 10:09:10;;;;;;;0.40;0.20;;;;;;;;;;4971759;28;20129;-79
2023/09/12 10:11:38;;;;;;;1.60;0.55;;;;;;;;;;4984577;28;20042;-80
2023/09/12 10:14:04;;;;;;;0.90;0.40;;;;;;;;;;4988252;28;20049;-80
2023/09/12 10:16:32;;;;;;;0.20;0.13;;;;;;;;;;4992484;28;20050;-80
2023/09/12 10:19:17;;;;;;;0.20;0.10;;;;;;;;;;4987880;28;20034;-78
2023/09/12 10:21:59;;;;;;;0.68;0.40;;;;;;;;;;4969502;28;20046;-80
2023/09/12 10:24:25;;;;;;;0.20;0.10;;;;;;;;;;4985857;28;20628;-81
2023/09/12 10:26:52;;;;;;;1.98;0.95;;;;;;;;;;4987209;28;20073;-81
2023/09/12 10:29:18;;;;;;;0.32;0.30;;;;;;;;;;4982939;28;20038;-81
2023/09/12 10:31:45;;;;;;;1.17;0.65;;;;;;;;;;4987295;28;20044;-79
2023/09/12 10:34:12;;;;;;;0.22;0.22;;;;;;;;;;4983129;28;20041;-82
2023/09/12 10:36:42;;;;;;;0.30;0.10;;;;;;;;;;4982175;28;20065;-80
2023/09/12 10:39:09;;;;;;;0.30;0.20;;;;;;;;;;4988770;28;20049;-79
2023/09/12 10:41:39;;;;;;;1.05;0.63;;;;;;;;;;4990488;28;20046;-79
2023/09/12 10:44:09;;;;;;;0.25;0.15;;;;;;;;;;4988850;28;20087;-82
2023/09/12 10:46:37;;;;;;;0.32;0.20;;;;;;;;;;4997918;28;20536;-81
2023/09/12 10:49:04;;;;;;;0.20;0.20;;;;;;;;;;4993239;28;20041;-81
2023/09/12 10:51:30;;;;;;;0.30;0.30;;;;;;;;;;4987318;28;20326;-81
2023/09/12 10:53:56;;;;;;;0.63;0.10;;;;;;;;;;4993047;28;20042;-80
2023/09/12 10:56:29;;;;;;;0.43;0.40;;;;;;;;;;4993056;28;20042;-79
2023/09/12 10:59:04;;;;;;;0.20;0.10;;;;;;;;;;4995149;28;20109;-81
2023/09/12 11:01:37;;;;;;;0.30;0.20;;;;;;;;;;4997424;28;20129;-81
2023/09/12 11:04:24;;;;;;;1.17;0.32;;;;;;;;;;4998406;28;20477;-80
2023/09/12 11:06:50;;;;;;;0.30;0.30;;;;;;;;;;4994247;28;20421;-81
2023/09/12 11:09:19;;;;;;;0.85;0.40;;;;;;;;;;4984948;28;20049;-80
2023/09/12 11:11:49;;;;;;;0.77;0.28;;;;;;;;;;4989290;28;20050;-80
2023/09/12 11:14:16;;;;;;;1.00;0.47;;;;;;;;;;4991828;28;20121;-81
2023/09/12 11:16:43;;;;;;;0.57;0.50;;;;;;;;;;4981044;28;20030;-80
2023/09/12 11:19:16;;;;;;;0.43;0.20;;;;;;;;;;4977585;28;20211;-82
2023/09/12 11:21:46;;;;;;;0.20;0.10;;;;;;;;;;4976340;28;20587;-79
2023/09/12 11:24:13;;;;;;;0.63;0.32;;;;;;;;;;4990333;28;20161;-79
2023/09/12 11:26:58;;;;;;;0.40;0.40;;;;;;;;;;4986790;28;20165;-79
2023/09/12 11:29:29;;;;;;;0.65;0.65;;;;;;;;;;4973559;28;20046;-80
2023/09/12 11:31:59;;;;;;;0.45;0.25;;;;;;;;;;4991188;28;20101;-80
2023/09/12 11:34:29;;;;;;;0.20;0.10;;;;;;;;;;4987630;28;20057;-81
2023/09/12 11:36:56;;;;;;;0.40;0.28;;;;;;;;;;4989315;28;20046;-80
2023/09/12 11:39:26;;;;;;;0.50;0.30;;;;;;;;;;4969118;28;21870;-82
2023/09/12 11:41:53;;;;;;;0.85;0.85;;;;;;;;;;4975924;28;20502;-80
2023/09/12 11:44:20;;;;;;;1.05;0.50;;;;;;;;;;4988373;28;20050;-79
2023/09/12 11:46:49;;;;;;;0.20;0.17;;;;;;;;;;4989568;28;20373;-78
2023/09/12 11:49:15;;;;;;;0.20;0.17;;;;;;;;;;4988204;28;20148;-78
2023/09/12 11:51:48;;;;;;;0.65;0.65;;;;;;;;;;4969240;28;20042;-79
2023/09/12 11:54:15;;;;;;;0.50;0.50;;;;;;;;;;4988157;28;20049;-79
2023/09/12 11:56:41;;;;;;;0.43;0.40;;;;;;;;;;4988907;28;20128;-79
2023/09/12 11:59:08;;;;;;;0.40;0.30;;;;;;;;;;4987155;28;20038;-79
2023/09/12 12:01:34;;;;;;;0.30;0.30;;;;;;;;;;4980853;28;20038;-77
2023/09/12 12:04:00;;;;;;;0.20;0.10;;;;;;;;;;5004944;28;20057;-79
2023/09/12 12:06:26;;;;;;;0.38;0.38;;;;;;;;;;4987922;28;20050;-78
2023/09/12 12:08:54;;;;;;;0.20;0.10;;;;;;;;;;4983850;28;20494;-78
2023/09/12 12:11:20;;;;;;;0.90;0.43;;;;;;;;;;4971168;28;20072;-79
2023/09/12 12:13:46;;;;;;;1.33;0.55;;;;;;;;;;4970859;28;20085;-78
2023/09/12 12:16:16;;;;;;;0.60;0.40;;;;;;;;;;4981148;28;20460;-78
2023/09/12 12:18:42;;;;;;;0.30;0.20;;;;;;;;;;4978287;28;20045;-78
2023/09/12 12:21:08;;;;;;;0.75;0.43;;;;;;;;;;4981923;28;20042;-79
2023/09/12 12:23:35;;;;;;;0.20;0.10;;;;;;;;;;4984315;28;20038;-77
2023/09/12 12:26:09;;;;;;;0.25;0.15;;;;;;;;;;4980430;28;20041;-78
2023/09/12 12:28:38;;;;;;;0.28;0.28;;;;;;;;;;4986093;28;20053;-82
2023/09/12 12:31:04;;;;;;;0.68;0.40;;;;;;;;;;4983998;28;20045;-79
2023/09/12 12:33:31;;;;;;;0.90;0.63;;;;;;;;;;4982702;28;20053;-79
2023/09/12 12:36:04;;;;;;;0.30;0.25;;;;;;;;;;4985771;28;20040;-79
2023/09/12 12:38:37;;;;;;;0.30;0.28;;;;;;;;;;4983922;28;20049;-80
2023/09/12 12:41:03;;;;;;;0.32;0.22;;;;;;;;;;4977971;28;20042;-80
2023/09/12 12:43:30;;;;;;;0.45;0.45;;;;;;;;;;4975847;28;20045;-77
2023/09/12 12:45:57;;;;;;;0.30;0.15;;;;;;;;;;4986879;28;20046;-78
2023/09/12 12:48:31;;;;;;;0.20;0.10;;;;;;;;;;4982208;28;20061;-79
2023/09/12 12:50:57;;;;;;;2.08;0.70;;;;;;;;;;4983769;28;20057;-77
2023/09/12 12:53:42;;;;;;;0.45;0.20;;;;;;;;;;4985214;28;20046;-79
2023/09/12 12:56:08;;;;;;;0.22;0.22;;;;;;;;;;4967611;28;20034;-79
2023/09/12 12:58:35;;;;;;;0.30;0.20;;;;;;;;;;4983205;28;20113;-79
2023/09/12 13:01:01;;;;;;;0.47;0.35;;;;;;;;;;4971863;28;20065;-78
2023/09/12 13:03:27;;;;;;;0.30;0.17;;;;;;;;;;4984351;28;20042;-80
2023/09/12 13:05:53;;;;;;;0.20;0.15;;;;;;;;;;4988420;28;20065;-79
2023/09/12 13:08:19;;;;;;;0.60;0.55;;;;;;;;;;4983756;28;20173;-77
2023/09/12 13:10:45;;;;;;;0.20;0.10;;;;;;;;;;4985318;28;20569;-79
2023/09/12 13:13:11;;;;;;;0.63;0.28;;;;;;;;;;4985478;28;20121;-78
2023/09/12 13:15:37;;;;;;;0.35;0.28;;;;;;;;;;4977821;28;21644;-79
2023/09/12 13:18:04;;;;;;;0.50;0.35;;;;;;;;;;4998746;28;20142;-79
2023/09/12 13:20:30;;;;;;;0.22;0.20;;;;;;;;;;4986130;28;20121;-78
2023/09/12 13:22:56;;;;;;;0.30;0.20;;;;;;;;;;4986687;28;20041;-78
2023/09/12 13:25:23;;;;;;;0.20;0.10;;;;;;;;;;4982279;28;20463;-79
2023/09/12 13:27:49;;;;;;;0.50;0.45;;;;;;;;;;4996158;28;20045;-79
2023/09/12 13:30:15;;;;;;;0.40;0.30;;;;;;;;;;4981519;28;20088;-78
2023/09/12 13:32:41;;;;;;;0.57;0.22;;;;;;;;;;4978185;28;20053;-81
2023/09/12 13:35:08;;;;;;;0.30;0.20;;;;;;;;;;4981101;28;20042;-78
2023/09/12 13:37:34;;;;;;;0.20;0.20;;;;;;;;;;4979299;28;20038;-78
2023/09/12 13:40:00;;;;;;;0.68;0.68;;;;;;;;;;4981507;28;20044;-77
2023/09/12 13:42:30;;;;;;;0.30;0.30;;;;;;;;;;4982923;28;20418;-78
2023/09/12 13:44:56;;;;;;;0.20;0.10;;;;;;;;;;4978605;28;20322;-79
2023/09/12 13:47:23;;;;;;;0.20;0.15;;;;;;;;;;4986744;28;20153;-79
2023/09/12 13:49:51;;;;;;;0.30;0.30;;;;;;;;;;4965739;28;20125;-78
2023/09/12 13:52:17;;;;;;;0.20;0.17;;;;;;;;;;4983870;28;20091;-78
2023/09/12 13:54:43;;;;;;;0.20;0.20;;;;;;;;;;4972412;28;20121;-78
2023/09/12 13:57:09;;;;;;;2.70;0.28;;;;;;;;;;4971609;28;20453;-78
2023/09/12 13:59:35;;;;;;;0.68;0.40;;;;;;;;;;4983089;28;20077;-78
2023/09/12 14:02:02;;;;;;;0.20;0.10;;;;;;;;;;4975711;28;20162;-80
2023/09/12 14:04:28;;;;;;;0.30;0.20;;;;;;;;;;4979527;28;20050;-80
2023/09/12 14:06:54;;;;;;;0.52;0.20;;;;;;;;;;4983766;28;20362;-80
2023/09/12 14:09:20;;;;;;;2.00;0.25;;;;;;;;;;4971964;28;20030;-82
2023/09/12 14:11:47;;;;;;;0.20;0.00;;;;;;;;;;4988659;28;20073;-80
2023/09/12 14:14:13;;;;;;;0.38;0.30;;;;;;;;;;4977966;28;20535;-82
2023/09/12 14:16:39;;;;;;;0.30;0.30;;;;;;;;;;4981418;28;20046;-80
2023/09/12 14:19:05;;;;;;;0.47;0.32;;;;;;;;;;5006806;28;20034;-80
2023/09/12 14:21:31;;;;;;;0.20;0.20;;;;;;;;;;5003009;28;20039;-80
2023/09/12 14:23:58;;;;;;;0.38;0.38;;;;;;;;;;4987537;28;20048;-80
2023/09/12 14:26:24;;;;;;;0.20;0.10;;;;;;;;;;4985284;28;20045;-80
2023/09/12 14:28:50;;;;;;;0.28;0.25;;;;;;;;;;4981180;28;20056;-80
2023/09/12 14:31:17;;;;;;;0.20;0.10;;;;;;;;;;4988896;28;20064;-81
2023/09/12 14:33:43;;;;;;;2.00;0.85;;;;;;;;;;4990740;28;20529;-81
2023/09/12 14:36:09;;;;;;;0.45;0.13;;;;;;;;;;4979291;28;20048;-81
2023/09/12 14:38:36;;;;;;;0.20;0.10;;;;;;;;;;4982872;28;20145;-84
2023/09/12 14:41:02;;;;;;;1.38;0.40;;;;;;;;;;4981427;28;20034;-80
2023/09/12 14:43:28;;;;;;;0.20;0.20;;;;;;;;;;4970085;28;20046;-82